sensor_id;sensor_type;location;lat;lon;timestamp;temperature;humidity
9385;DHT22;4732;49.340;10.886;2023-07-24T03:02:20;17.40;99.90
9385;DHT22;4732;49.340;10.886;2023-07-24T03:04:45;17.40;99.90
9385;DHT22;4732;49.340;10.886;2023-07-24T03:07:10;17.40;99.90
9385;DHT22;4732;49.340;10.886;2023-07-24T03:09:36;17.30;99.90
9385;DHT22;4732;49.340;10.886;2023-07-24T03:12:02;17.40;99.90
9385;DHT22;4732;49.340;10.886;2023-07-24T03:14:27;17.30;99.90
9385;DHT22;4732;49.340;10.886;2023-07-24T03:16:53;17.30;99.90
9385;DHT22;4732;49.340;10.886;2023-07-24T03:19:18;17.20;99.90
9385;DHT22;4732;49.340;10.886;2023-07-24T03:21:45;17.20;99.90
9385;DHT22;4732;49.340;10.886;2023-07-24T03:24:11;17.20;99.90
9385;DHT22;4732;49.340;10.886;2023-07-24T03:26:36;17.30;99.90
9385;DHT22;4732;49.340;10.886;2023-07-24T03:29:02;17.20;99.90
9385;DHT22;4732;49.340;10.886;2023-07-24T03:31:27;17.20;99.90
9385;DHT22;4732;49.340;10.886;2023-07-24T03:33:53;17.20;99.90
9385;DHT22;4732;49.340;10.886;2023-07-24T03:36:18;17.20;99.90
9385;DHT22;4732;49.340;10.886;2023-07-24T03:38:44;17.20;99.90
9385;DHT22;4732;49.340;10.886;2023-07-24T03:41:09;17.20;99.90
9385;DHT22;4732;49.340;10.886;2023-07-24T03:43:35;17.20;99.90
9385;DHT22;4732;49.340;10.886;2023-07-24T03:46:01;17.20;99.90
9385;DHT22;4732;49.340;10.886;2023-07-24T03:48:26;17.20;99.90
9385;DHT22;4732;49.340;10.886;2023-07-24T03:50:58;17.10;99.90
9385;DHT22;4732;49.340;10.886;2023-07-24T03:53:25;17.10;99.90
9385;DHT22;4732;49.340;10.886;2023-07-24T03:55:51;17.00;99.90
9385;DHT22;4732;49.340;10.886;2023-07-24T03:58:16;17.10;99.90
9385;DHT22;4732;49.340;10.886;2023-07-24T04:00:42;17.10;99.90
9385;DHT22;4732;49.340;10.886;2023-07-24T04:03:07;17.00;99.90
9385;DHT22;4732;49.340;10.886;2023-07-24T04:05:34;17.10;99.90
9385;DHT22;4732;49.340;10.886;2023-07-24T04:08:00;17.10;99.90
9385;DHT22;4732;49.340;10.886;2023-07-24T04:10:25;17.00;99.90
9385;DHT22;4732;49.340;10.886;2023-07-24T04:12:51;17.10;99.90
9385;DHT22;4732;49.340;10.886;2023-07-24T04:15:17;17.00;99.90
9385;DHT22;4732;49.340;10.886;2023-07-24T04:17:42;17.10;99.90
9385;DHT22;4732;49.340;10.886;2023-07-24T04:20:08;17.00;99.90
9385;DHT22;4732;49.340;10.886;2023-07-24T04:22:34;17.00;99.90
9385;DHT22;4732;49.340;10.886;2023-07-24T04:25:00;17.00;99.90
9385;DHT22;4732;49.340;10.886;2023-07-24T04:27:25;17.00;99.90
9385;DHT22;4732;49.340;10.886;2023-07-24T04:29:51;17.10;99.90
9385;DHT22;4732;49.340;10.886;2023-07-24T04:32:16;17.00;99.90
9385;DHT22;4732;49.340;10.886;2023-07-24T04:34:41;17.00;99.90
9385;DHT22;4732;49.340;10.886;2023-07-24T04:37:07;17.00;99.90
9385;DHT22;4732;49.340;10.886;2023-07-24T04:39:32;17.20;99.90
9385;DHT22;4732;49.340;10.886;2023-07-24T04:41:59;17.20;99.90
9385;DHT22;4732;49.340;10.886;2023-07-24T04:44:24;17.30;99.90
9385;DHT22;4732;49.340;10.886;2023-07-24T04:46:50;17.30;99.90
9385;DHT22;4732;49.340;10.886;2023-07-24T04:49:16;17.40;99.90
9385;DHT22;4732;49.340;10.886;2023-07-24T04:51:41;17.40;99.90
9385;DHT22;4732;49.340;10.886;2023-07-24T04:54:07;17.50;99.90
9385;DHT22;4732;49.340;10.886;2023-07-24T04:56:32;17.50;99.90
9385;DHT22;4732;49.340;10.886;2023-07-24T04:58:58;17.60;99.90
9385;DHT22;4732;49.340;10.886;2023-07-24T05:01:23;17.60;99.90
9385;DHT22;4732;49.340;10.886;2023-07-24T05:03:49;17.60;99.90
9385;DHT22;4732;49.340;10.886;2023-07-24T05:06:14;17.70;99.90
9385;DHT22;4732;49.340;10.886;2023-07-24T05:08:40;17.70;99.90
9385;DHT22;4732;49.340;10.886;2023-07-24T05:11:05;17.80;99.90
9385;DHT22;4732;49.340;10.886;2023-07-24T05:13:31;17.80;99.90
9385;DHT22;4732;49.340;10.886;2023-07-24T05:15:56;17.80;99.90
9385;DHT22;4732;49.340;10.886;2023-07-24T05:18:22;17.90;99.90
9385;DHT22;4732;49.340;10.886;2023-07-24T05:20:48;18.00;99.90
9385;DHT22;4732;49.340;10.886;2023-07-24T05:23:16;18.10;99.90
9385;DHT22;4732;49.340;10.886;2023-07-24T05:25:42;18.10;99.90
9385;DHT22;4732;49.340;10.886;2023-07-24T05:28:08;18.30;99.90
9385;DHT22;4732;49.340;10.886;2023-07-24T05:30:34;18.40;99.90
9385;DHT22;4732;49.340;10.886;2023-07-24T05:33:00;18.50;99.90
9385;DHT22;4732;49.340;10.886;2023-07-24T05:35:25;18.50;99.90
9385;DHT22;4732;49.340;10.886;2023-07-24T05:37:53;18.70;99.90
9385;DHT22;4732;49.340;10.886;2023-07-24T05:40:18;18.80;99.90
9385;DHT22;4732;49.340;10.886;2023-07-24T05:42:44;18.90;99.90
9385;DHT22;4732;49.340;10.886;2023-07-24T05:45:10;18.90;99.90
9385;DHT22;4732;49.340;10.886;2023-07-24T05:47:37;19.00;99.90
9385;DHT22;4732;49.340;10.886;2023-07-24T05:50:02;19.10;99.90
9385;DHT22;4732;49.340;10.886;2023-07-24T05:52:28;19.20;99.90
9385;DHT22;4732;49.340;10.886;2023-07-24T05:54:54;19.20;99.90
9385;DHT22;4732;49.340;10.886;2023-07-24T05:57:20;19.20;99.90
9385;DHT22;4732;49.340;10.886;2023-07-24T05:59:45;19.10;99.90
9385;DHT22;4732;49.340;10.886;2023-07-24T06:02:11;19.30;99.90
9385;DHT22;4732;49.340;10.886;2023-07-24T06:04:36;19.30;99.90
9385;DHT22;4732;49.340;10.886;2023-07-24T06:07:02;19.30;99.90
9385;DHT22;4732;49.340;10.886;2023-07-24T06:09:27;19.40;99.90
9385;DHT22;4732;49.340;10.886;2023-07-24T06:11:53;19.40;99.90
9385;DHT22;4732;49.340;10.886;2023-07-24T06:14:19;19.50;99.90
9385;DHT22;4732;49.340;10.886;2023-07-24T06:16:44;19.50;99.90
9385;DHT22;4732;49.340;10.886;2023-07-24T06:19:10;19.50;99.90
9385;DHT22;4732;49.340;10.886;2023-07-24T06:21:35;19.50;99.90
9385;DHT22;4732;49.340;10.886;2023-07-24T06:24:01;19.50;99.90
9385;DHT22;4732;49.340;10.886;2023-07-24T06:26:26;19.40;99.90
9385;DHT22;4732;49.340;10.886;2023-07-24T06:28:51;19.50;99.90
9385;DHT22;4732;49.340;10.886;2023-07-24T06:31:17;19.50;99.90
9385;DHT22;4732;49.340;10.886;2023-07-24T06:33:42;19.50;99.90
9385;DHT22;4732;49.340;10.886;2023-07-24T06:36:11;19.40;99.90
9385;DHT22;4732;49.340;10.886;2023-07-24T06:38:37;19.50;99.90
9385;DHT22;4732;49.340;10.886;2023-07-24T06:41:03;19.80;99.90
9385;DHT22;4732;49.340;10.886;2023-07-24T06:43:28;19.90;99.90
9385;DHT22;4732;49.340;10.886;2023-07-24T06:45:54;20.10;99.90
9385;DHT22;4732;49.340;10.886;2023-07-24T06:48:19;20.20;99.90
9385;DHT22;4732;49.340;10.886;2023-07-24T06:50:45;20.30;99.90
9385;DHT22;4732;49.340;10.886;2023-07-24T06:53:10;20.40;99.90
9385;DHT22;4732;49.340;10.886;2023-07-24T06:55:36;20.60;99.90
9385;DHT22;4732;49.340;10.886;2023-07-24T06:58:01;20.60;99.90
9385;DHT22;4732;49.340;10.886;2023-07-24T07:00:27;20.70;99.90
9385;DHT22;4732;49.340;10.886;2023-07-24T07:02:52;20.80;99.90
9385;DHT22;4732;49.340;10.886;2023-07-24T07:05:18;21.00;99.90
9385;DHT22;4732;49.340;10.886;2023-07-24T07:07:43;21.20;99.90
9385;DHT22;4732;49.340;10.886;2023-07-24T07:10:09;21.30;99.90
9385;DHT22;4732;49.340;10.886;2023-07-24T07:12:35;21.50;99.90
9385;DHT22;4732;49.340;10.886;2023-07-24T07:15:01;21.50;99.90
9385;DHT22;4732;49.340;10.886;2023-07-24T07:17:26;21.50;99.90
9385;DHT22;4732;49.340;10.886;2023-07-24T07:19:52;21.60;99.90
9385;DHT22;4732;49.340;10.886;2023-07-24T07:22:17;21.60;99.90
9385;DHT22;4732;49.340;10.886;2023-07-24T07:24:42;21.70;99.90
9385;DHT22;4732;49.340;10.886;2023-07-24T07:27:09;21.70;99.90
9385;DHT22;4732;49.340;10.886;2023-07-24T07:29:34;21.80;99.90
9385;DHT22;4732;49.340;10.886;2023-07-24T07:32:00;21.70;99.90
9385;DHT22;4732;49.340;10.886;2023-07-24T07:34:25;21.70;99.90
9385;DHT22;4732;49.340;10.886;2023-07-24T07:36:51;21.70;99.90
9385;DHT22;4732;49.340;10.886;2023-07-24T07:39:17;21.60;99.90
9385;DHT22;4732;49.340;10.886;2023-07-24T07:41:42;21.70;99.90
9385;DHT22;4732;49.340;10.886;2023-07-24T07:44:08;21.60;99.90
9385;DHT22;4732;49.340;10.886;2023-07-24T07:46:34;21.70;99.90
9385;DHT22;4732;49.340;10.886;2023-07-24T07:48:59;21.80;99.90
9385;DHT22;4732;49.340;10.886;2023-07-24T07:51:25;21.70;99.90
9385;DHT22;4732;49.340;10.886;2023-07-24T07:53:51;21.80;99.90
9385;DHT22;4732;49.340;10.886;2023-07-24T07:56:17;21.80;99.90
9385;DHT22;4732;49.340;10.886;2023-07-24T07:58:42;21.70;99.90
9385;DHT22;4732;49.340;10.886;2023-07-24T08:01:08;21.80;99.90
9385;DHT22;4732;49.340;10.886;2023-07-24T08:03:33;21.80;99.90
9385;DHT22;4732;49.340;10.886;2023-07-24T08:05:59;21.70;99.90
9385;DHT22;4732;49.340;10.886;2023-07-24T08:08:25;21.80;99.90
9385;DHT22;4732;49.340;10.886;2023-07-24T08:10:51;21.80;99.90
9385;DHT22;4732;49.340;10.886;2023-07-24T08:13:16;21.80;99.90
9385;DHT22;4732;49.340;10.886;2023-07-24T08:15:42;21.80;99.90
9385;DHT22;4732;49.340;10.886;2023-07-24T08:18:07;21.90;99.90
9385;DHT22;4732;49.340;10.886;2023-07-24T08:20:37;21.90;99.90
9385;DHT22;4732;49.340;10.886;2023-07-24T08:23:03;22.00;99.90
9385;DHT22;4732;49.340;10.886;2023-07-24T08:25:28;22.00;99.90
9385;DHT22;4732;49.340;10.886;2023-07-24T08:27:54;22.00;99.90
9385;DHT22;4732;49.340;10.886;2023-07-24T08:30:19;22.00;99.90
9385;DHT22;4732;49.340;10.886;2023-07-24T08:32:45;22.10;99.90
9385;DHT22;4732;49.340;10.886;2023-07-24T08:35:10;22.00;99.90
9385;DHT22;4732;49.340;10.886;2023-07-24T08:37:36;22.20;99.90
9385;DHT22;4732;49.340;10.886;2023-07-24T08:40:01;22.10;99.90
9385;DHT22;4732;49.340;10.886;2023-07-24T08:42:28;22.20;99.90
9385;DHT22;4732;49.340;10.886;2023-07-24T08:44:54;22.20;99.90
9385;DHT22;4732;49.340;10.886;2023-07-24T08:47:20;22.30;99.90
9385;DHT22;4732;49.340;10.886;2023-07-24T08:49:47;22.30;99.90
9385;DHT22;4732;49.340;10.886;2023-07-24T08:52:14;22.30;99.90
9385;DHT22;4732;49.340;10.886;2023-07-24T08:54:39;22.30;99.90
9385;DHT22;4732;49.340;10.886;2023-07-24T08:57:08;22.30;99.90
9385;DHT22;4732;49.340;10.886;2023-07-24T08:59:34;22.50;99.90
9385;DHT22;4732;49.340;10.886;2023-07-24T09:02:00;22.60;99.90
9385;DHT22;4732;49.340;10.886;2023-07-24T09:04:26;22.70;99.90
9385;DHT22;4732;49.340;10.886;2023-07-24T09:06:51;22.70;99.90
9385;DHT22;4732;49.340;10.886;2023-07-24T09:09:18;22.80;99.90
9385;DHT22;4732;49.340;10.886;2023-07-24T09:11:51;23.00;99.90
9385;DHT22;4732;49.340;10.886;2023-07-24T09:14:28;23.10;99.90
9385;DHT22;4732;49.340;10.886;2023-07-24T09:17:02;23.40;99.90
9385;DHT22;4732;49.340;10.886;2023-07-24T09:19:28;23.50;99.90
9385;DHT22;4732;49.340;10.886;2023-07-24T09:21:54;23.70;99.90
9385;DHT22;4732;49.340;10.886;2023-07-24T09:24:19;23.90;99.90
9385;DHT22;4732;49.340;10.886;2023-07-24T09:26:49;24.10;99.90
9385;DHT22;4732;49.340;10.886;2023-07-24T09:29:16;24.20;99.90
9385;DHT22;4732;49.340;10.886;2023-07-24T09:31:41;24.20;99.90
9385;DHT22;4732;49.340;10.886;2023-07-24T09:34:15;24.60;99.90
9385;DHT22;4732;49.340;10.886;2023-07-24T09:39:07;25.40;99.90
9385;DHT22;4732;49.340;10.886;2023-07-24T09:41:36;25.80;99.90
9385;DHT22;4732;49.340;10.886;2023-07-24T09:44:01;25.60;99.90
9385;DHT22;4732;49.340;10.886;2023-07-24T09:46:27;25.40;99.90
9385;DHT22;4732;49.340;10.886;2023-07-24T09:48:56;25.30;99.90
9385;DHT22;4732;49.340;10.886;2023-07-24T09:51:22;25.60;99.90
9385;DHT22;4732;49.340;10.886;2023-07-24T09:56:26;25.50;99.90
9385;DHT22;4732;49.340;10.886;2023-07-24T09:58:52;25.10;99.90
9385;DHT22;4732;49.340;10.886;2023-07-24T10:01:21;24.90;99.90
9385;DHT22;4732;49.340;10.886;2023-07-24T10:03:48;24.80;99.90
9385;DHT22;4732;49.340;10.886;2023-07-24T10:06:18;24.60;99.90
9385;DHT22;4732;49.340;10.886;2023-07-24T10:08:44;24.50;99.90
9385;DHT22;4732;49.340;10.886;2023-07-24T10:11:11;24.40;99.90
9385;DHT22;4732;49.340;10.886;2023-07-24T10:13:39;24.30;99.90
9385;DHT22;4732;49.340;10.886;2023-07-24T10:16:05;24.30;99.90
9385;DHT22;4732;49.340;10.886;2023-07-24T10:18:33;24.20;99.90
9385;DHT22;4732;49.340;10.886;2023-07-24T10:21:07;24.20;99.90
9385;DHT22;4732;49.340;10.886;2023-07-24T10:23:37;24.10;99.90
9385;DHT22;4732;49.340;10.886;2023-07-24T10:26:06;24.00;99.90
9385;DHT22;4732;49.340;10.886;2023-07-24T10:28:40;23.90;99.90
9385;DHT22;4732;49.340;10.886;2023-07-24T10:31:19;23.80;99.90
9385;DHT22;4732;49.340;10.886;2023-07-24T10:33:45;23.70;99.90
9385;DHT22;4732;49.340;10.886;2023-07-24T10:36:11;23.60;99.90
9385;DHT22;4732;49.340;10.886;2023-07-24T10:38:42;23.60;99.90
9385;DHT22;4732;49.340;10.886;2023-07-24T10:41:09;23.50;99.90
9385;DHT22;4732;49.340;10.886;2023-07-24T10:43:52;23.40;99.90
9385;DHT22;4732;49.340;10.886;2023-07-24T10:46:34;23.30;99.90
9385;DHT22;4732;49.340;10.886;2023-07-24T10:49:00;23.30;99.90
9385;DHT22;4732;49.340;10.886;2023-07-24T10:51:26;23.20;99.90
9385;DHT22;4732;49.340;10.886;2023-07-24T10:53:51;23.20;99.90
9385;DHT22;4732;49.340;10.886;2023-07-24T10:56:18;23.20;99.90
9385;DHT22;4732;49.340;10.886;2023-07-24T10:58:44;23.10;99.90
9385;DHT22;4732;49.340;10.886;2023-07-24T11:01:09;23.10;99.90
9385;DHT22;4732;49.340;10.886;2023-07-24T11:03:41;23.10;99.90
9385;DHT22;4732;49.340;10.886;2023-07-24T11:06:13;23.20;99.90
9385;DHT22;4732;49.340;10.886;2023-07-24T11:08:39;23.30;99.90
9385;DHT22;4732;49.340;10.886;2023-07-24T11:11:06;23.30;99.90
9385;DHT22;4732;49.340;10.886;2023-07-24T11:13:32;23.30;99.90
9385;DHT22;4732;49.340;10.886;2023-07-24T11:16:04;23.30;99.90
9385;DHT22;4732;49.340;10.886;2023-07-24T11:18:30;23.30;99.90
9385;DHT22;4732;49.340;10.886;2023-07-24T11:20:56;23.20;99.90
9385;DHT22;4732;49.340;10.886;2023-07-24T11:23:23;23.10;99.90
9385;DHT22;4732;49.340;10.886;2023-07-24T11:25:55;23.00;99.90
9385;DHT22;4732;49.340;10.886;2023-07-24T11:28:21;23.10;99.90
9385;DHT22;4732;49.340;10.886;2023-07-24T11:30:46;23.10;99.90
9385;DHT22;4732;49.340;10.886;2023-07-24T11:33:15;23.00;99.90
9385;DHT22;4732;49.340;10.886;2023-07-24T11:35:41;23.00;99.90
9385;DHT22;4732;49.340;10.886;2023-07-24T11:38:10;22.90;99.90
9385;DHT22;4732;49.340;10.886;2023-07-24T11:40:42;22.90;99.90
9385;DHT22;4732;49.340;10.886;2023-07-24T11:43:23;22.90;99.90
9385;DHT22;4732;49.340;10.886;2023-07-24T11:45:51;22.90;99.90
9385;DHT22;4732;49.340;10.886;2023-07-24T11:48:20;22.80;99.90
9385;DHT22;4732;49.340;10.886;2023-07-24T11:50:54;22.90;99.90
9385;DHT22;4732;49.340;10.886;2023-07-24T11:53:21;22.90;99.90
9385;DHT22;4732;49.340;10.886;2023-07-24T11:55:48;22.90;99.90
9385;DHT22;4732;49.340;10.886;2023-07-24T11:58:15;22.90;99.90
9385;DHT22;4732;49.340;10.886;2023-07-24T12:00:41;22.90;99.90
9385;DHT22;4732;49.340;10.886;2023-07-24T12:03:07;22.90;99.90
9385;DHT22;4732;49.340;10.886;2023-07-24T12:05:41;22.90;99.90
9385;DHT22;4732;49.340;10.886;2023-07-24T12:08:07;22.90;99.90
9385;DHT22;4732;49.340;10.886;2023-07-24T12:10:38;22.90;99.90
9385;DHT22;4732;49.340;10.886;2023-07-24T12:13:05;22.90;99.90
9385;DHT22;4732;49.340;10.886;2023-07-24T12:15:30;22.90;99.90
9385;DHT22;4732;49.340;10.886;2023-07-24T12:17:56;22.80;99.90
9385;DHT22;4732;49.340;10.886;2023-07-24T12:20:23;22.90;99.90
9385;DHT22;4732;49.340;10.886;2023-07-24T12:22:48;22.80;99.90
9385;DHT22;4732;49.340;10.886;2023-07-24T12:25:14;22.80;99.90
9385;DHT22;4732;49.340;10.886;2023-07-24T12:27:41;22.70;99.90
9385;DHT22;4732;49.340;10.886;2023-07-24T12:30:07;22.70;99.90
9385;DHT22;4732;49.340;10.886;2023-07-24T12:32:34;22.60;99.90
9385;DHT22;4732;49.340;10.886;2023-07-24T12:34:59;22.60;99.90
9385;DHT22;4732;49.340;10.886;2023-07-24T12:37:25;22.50;99.90
9385;DHT22;4732;49.340;10.886;2023-07-24T12:39:51;22.50;99.90
9385;DHT22;4732;49.340;10.886;2023-07-24T12:42:16;22.50;99.90
9385;DHT22;4732;49.340;10.886;2023-07-24T12:44:42;22.40;99.90
9385;DHT22;4732;49.340;10.886;2023-07-24T12:47:10;22.40;99.90
9385;DHT22;4732;49.340;10.886;2023-07-24T12:49:35;22.30;99.90
9385;DHT22;4732;49.340;10.886;2023-07-24T12:52:02;22.20;99.90
9385;DHT22;4732;49.340;10.886;2023-07-24T12:54:28;22.20;99.90
9385;DHT22;4732;49.340;10.886;2023-07-24T12:56:53;22.20;99.90
9385;DHT22;4732;49.340;10.886;2023-07-24T12:59:19;22.30;99.90
9385;DHT22;4732;49.340;10.886;2023-07-24T13:01:45;22.40;99.90
9385;DHT22;4732;49.340;10.886;2023-07-24T13:04:11;22.40;99.90
9385;DHT22;4732;49.340;10.886;2023-07-24T13:06:37;22.50;99.90
9385;DHT22;4732;49.340;10.886;2023-07-24T13:09:03;22.60;99.90
9385;DHT22;4732;49.340;10.886;2023-07-24T13:11:29;22.80;99.90
9385;DHT22;4732;49.340;10.886;2023-07-24T13:13:55;23.10;99.90
9385;DHT22;4732;49.340;10.886;2023-07-24T13:16:23;23.30;99.90
9385;DHT22;4732;49.340;10.886;2023-07-24T13:18:49;23.60;99.90
9385;DHT22;4732;49.340;10.886;2023-07-24T13:21:15;23.90;99.90
9385;DHT22;4732;49.340;10.886;2023-07-24T13:23:41;24.00;99.90
9385;DHT22;4732;49.340;10.886;2023-07-24T13:26:06;23.70;99.90
9385;DHT22;4732;49.340;10.886;2023-07-24T13:28:36;23.40;99.90
9385;DHT22;4732;49.340;10.886;2023-07-24T13:31:19;23.40;99.90
9385;DHT22;4732;49.340;10.886;2023-07-24T13:33:45;23.60;99.90
9385;DHT22;4732;49.340;10.886;2023-07-24T13:36:11;23.40;99.90
9385;DHT22;4732;49.340;10.886;2023-07-24T13:38:36;23.20;99.90
9385;DHT22;4732;49.340;10.886;2023-07-24T13:41:02;23.20;99.90
9385;DHT22;4732;49.340;10.886;2023-07-24T13:43:30;23.10;99.90
9385;DHT22;4732;49.340;10.886;2023-07-24T13:45:55;23.10;99.90
9385;DHT22;4732;49.340;10.886;2023-07-24T13:48:21;22.90;99.90
9385;DHT22;4732;49.340;10.886;2023-07-24T13:50:47;22.90;99.90
9385;DHT22;4732;49.340;10.886;2023-07-24T13:53:12;22.90;99.90
9385;DHT22;4732;49.340;10.886;2023-07-24T13:55:38;22.90;99.90
9385;DHT22;4732;49.340;10.886;2023-07-24T13:58:04;22.90;99.90
9385;DHT22;4732;49.340;10.886;2023-07-24T14:00:29;22.90;99.90
9385;DHT22;4732;49.340;10.886;2023-07-24T14:02:55;22.90;99.90
9385;DHT22;4732;49.340;10.886;2023-07-24T14:05:20;22.90;99.90
9385;DHT22;4732;49.340;10.886;2023-07-24T14:07:46;22.70;99.90
9385;DHT22;4732;49.340;10.886;2023-07-24T14:10:11;22.60;99.90
9385;DHT22;4732;49.340;10.886;2023-07-24T14:12:37;22.60;99.90
9385;DHT22;4732;49.340;10.886;2023-07-24T14:15:03;22.50;99.90
9385;DHT22;4732;49.340;10.886;2023-07-24T14:17:29;22.70;99.90
9385;DHT22;4732;49.340;10.886;2023-07-24T14:19:54;22.90;99.90
9385;DHT22;4732;49.340;10.886;2023-07-24T14:22:20;22.90;99.90
9385;DHT22;4732;49.340;10.886;2023-07-24T14:24:46;23.00;99.90
9385;DHT22;4732;49.340;10.886;2023-07-24T14:27:12;22.90;99.90
9385;DHT22;4732;49.340;10.886;2023-07-24T14:29:37;22.90;99.90
9385;DHT22;4732;49.340;10.886;2023-07-24T14:32:04;22.90;99.90
9385;DHT22;4732;49.340;10.886;2023-07-24T14:34:30;23.00;99.90
9385;DHT22;4732;49.340;10.886;2023-07-24T14:36:55;23.00;99.90
9385;DHT22;4732;49.340;10.886;2023-07-24T14:39:21;23.10;99.90
9385;DHT22;4732;49.340;10.886;2023-07-24T14:41:46;23.10;99.90
9385;DHT22;4732;49.340;10.886;2023-07-24T14:44:12;23.20;99.90
9385;DHT22;4732;49.340;10.886;2023-07-24T14:46:37;23.10;99.90
9385;DHT22;4732;49.340;10.886;2023-07-24T14:49:03;23.10;99.90
9385;DHT22;4732;49.340;10.886;2023-07-24T14:51:28;23.10;99.90
9385;DHT22;4732;49.340;10.886;2023-07-24T14:53:54;23.00;99.90
9385;DHT22;4732;49.340;10.886;2023-07-24T14:56:20;22.90;99.90
9385;DHT22;4732;49.340;10.886;2023-07-24T14:58:46;23.00;99.90
9385;DHT22;4732;49.340;10.886;2023-07-24T15:01:12;22.90;99.90
9385;DHT22;4732;49.340;10.886;2023-07-24T15:03:38;22.90;99.90
9385;DHT22;4732;49.340;10.886;2023-07-24T15:06:03;22.80;99.90
9385;DHT22;4732;49.340;10.886;2023-07-24T15:08:32;22.80;99.90
9385;DHT22;4732;49.340;10.886;2023-07-24T15:10:57;22.70;99.90
9385;DHT22;4732;49.340;10.886;2023-07-24T15:13:23;22.60;99.90
9385;DHT22;4732;49.340;10.886;2023-07-24T15:15:48;22.50;99.90
9385;DHT22;4732;49.340;10.886;2023-07-24T15:18:14;22.60;99.90
9385;DHT22;4732;49.340;10.886;2023-07-24T15:20:39;22.60;99.90
9385;DHT22;4732;49.340;10.886;2023-07-24T15:23:05;22.70;99.90
9385;DHT22;4732;49.340;10.886;2023-07-24T15:25:31;22.70;99.90
9385;DHT22;4732;49.340;10.886;2023-07-24T15:27:56;22.70;99.90
9385;DHT22;4732;49.340;10.886;2023-07-24T15:30:22;22.70;99.90
9385;DHT22;4732;49.340;10.886;2023-07-24T15:32:47;22.60;99.90
9385;DHT22;4732;49.340;10.886;2023-07-24T15:35:13;22.70;99.90
9385;DHT22;4732;49.340;10.886;2023-07-24T15:37:38;22.70;99.90
9385;DHT22;4732;49.340;10.886;2023-07-24T15:40:04;22.80;99.90
9385;DHT22;4732;49.340;10.886;2023-07-24T15:42:30;22.90;99.90
9385;DHT22;4732;49.340;10.886;2023-07-24T15:44:55;23.00;99.90
9385;DHT22;4732;49.340;10.886;2023-07-24T15:47:21;23.00;99.90
9385;DHT22;4732;49.340;10.886;2023-07-24T15:49:46;23.10;99.90
9385;DHT22;4732;49.340;10.886;2023-07-24T15:52:12;23.10;99.90
9385;DHT22;4732;49.340;10.886;2023-07-24T15:54:38;23.10;99.90
9385;DHT22;4732;49.340;10.886;2023-07-24T15:57:03;23.10;99.90
9385;DHT22;4732;49.340;10.886;2023-07-24T15:59:29;23.00;99.90
9385;DHT22;4732;49.340;10.886;2023-07-24T16:01:54;23.10;99.90
9385;DHT22;4732;49.340;10.886;2023-07-24T16:04:20;23.00;99.90
9385;DHT22;4732;49.340;10.886;2023-07-24T16:06:46;23.00;99.90
9385;DHT22;4732;49.340;10.886;2023-07-24T16:09:12;23.00;99.90
9385;DHT22;4732;49.340;10.886;2023-07-24T16:11:38;23.00;99.90
9385;DHT22;4732;49.340;10.886;2023-07-24T16:14:04;23.00;99.90
9385;DHT22;4732;49.340;10.886;2023-07-24T16:16:30;23.10;99.90
9385;DHT22;4732;49.340;10.886;2023-07-24T16:19:15;23.00;99.90
9385;DHT22;4732;49.340;10.886;2023-07-24T16:21:42;23.10;99.90
9385;DHT22;4732;49.340;10.886;2023-07-24T16:24:09;23.10;99.90
9385;DHT22;4732;49.340;10.886;2023-07-24T16:26:35;23.20;99.90
9385;DHT22;4732;49.340;10.886;2023-07-24T16:29:01;23.30;99.90
9385;DHT22;4732;49.340;10.886;2023-07-24T16:31:27;23.30;99.90
9385;DHT22;4732;49.340;10.886;2023-07-24T16:33:53;23.40;99.90
9385;DHT22;4732;49.340;10.886;2023-07-24T16:36:18;23.60;99.90
9385;DHT22;4732;49.340;10.886;2023-07-24T16:38:44;24.00;99.90
9385;DHT22;4732;49.340;10.886;2023-07-24T16:41:09;24.30;99.90
9385;DHT22;4732;49.340;10.886;2023-07-24T16:43:36;24.30;99.90
9385;DHT22;4732;49.340;10.886;2023-07-24T16:46:02;24.40;99.90
9385;DHT22;4732;49.340;10.886;2023-07-24T16:48:27;24.50;99.90
9385;DHT22;4732;49.340;10.886;2023-07-24T16:50:53;24.50;99.90
9385;DHT22;4732;49.340;10.886;2023-07-24T16:53:18;24.40;99.90
9385;DHT22;4732;49.340;10.886;2023-07-24T16:55:44;24.40;99.90
9385;DHT22;4732;49.340;10.886;2023-07-24T16:58:09;24.20;99.90
9385;DHT22;4732;49.340;10.886;2023-07-24T17:00:35;24.10;99.90
9385;DHT22;4732;49.340;10.886;2023-07-24T17:03:00;23.90;99.90
9385;DHT22;4732;49.340;10.886;2023-07-24T17:05:27;23.90;99.90
9385;DHT22;4732;49.340;10.886;2023-07-24T17:07:52;23.80;99.90
9385;DHT22;4732;49.340;10.886;2023-07-24T17:10:18;23.70;99.90
9385;DHT22;4732;49.340;10.886;2023-07-24T17:12:44;23.70;99.90
9385;DHT22;4732;49.340;10.886;2023-07-24T17:15:11;23.60;99.90
9385;DHT22;4732;49.340;10.886;2023-07-24T17:17:36;23.60;99.90
9385;DHT22;4732;49.340;10.886;2023-07-24T17:20:02;23.50;99.90
9385;DHT22;4732;49.340;10.886;2023-07-24T17:22:28;23.40;99.90
9385;DHT22;4732;49.340;10.886;2023-07-24T17:24:53;23.30;99.90
9385;DHT22;4732;49.340;10.886;2023-07-24T17:27:18;23.20;99.90
9385;DHT22;4732;49.340;10.886;2023-07-24T17:29:44;23.10;99.90
9385;DHT22;4732;49.340;10.886;2023-07-24T17:32:10;23.00;99.90
9385;DHT22;4732;49.340;10.886;2023-07-24T17:34:37;22.90;99.90
9385;DHT22;4732;49.340;10.886;2023-07-24T17:37:02;22.90;99.90
9385;DHT22;4732;49.340;10.886;2023-07-24T17:39:28;22.80;99.90
9385;DHT22;4732;49.340;10.886;2023-07-24T17:41:54;22.70;99.90
9385;DHT22;4732;49.340;10.886;2023-07-24T17:44:19;22.60;99.90
9385;DHT22;4732;49.340;10.886;2023-07-24T17:46:45;22.50;99.90
9385;DHT22;4732;49.340;10.886;2023-07-24T17:49:10;22.40;99.90
9385;DHT22;4732;49.340;10.886;2023-07-24T17:51:36;22.40;99.90
9385;DHT22;4732;49.340;10.886;2023-07-24T17:54:01;22.40;99.90
9385;DHT22;4732;49.340;10.886;2023-07-24T17:56:27;22.30;99.90
9385;DHT22;4732;49.340;10.886;2023-07-24T17:58:52;22.30;99.90
9385;DHT22;4732;49.340;10.886;2023-07-24T18:01:18;22.20;99.90
9385;DHT22;4732;49.340;10.886;2023-07-24T18:03:46;22.20;99.90
9385;DHT22;4732;49.340;10.886;2023-07-24T18:06:11;22.10;99.90
9385;DHT22;4732;49.340;10.886;2023-07-24T18:08:37;22.10;99.90
9385;DHT22;4732;49.340;10.886;2023-07-24T18:11:02;22.10;99.90
9385;DHT22;4732;49.340;10.886;2023-07-24T18:13:28;22.10;99.90
9385;DHT22;4732;49.340;10.886;2023-07-24T18:15:53;22.20;99.90
9385;DHT22;4732;49.340;10.886;2023-07-24T18:18:19;22.20;99.90
9385;DHT22;4732;49.340;10.886;2023-07-24T18:20:44;22.20;99.90
9385;DHT22;4732;49.340;10.886;2023-07-24T18:23:10;22.20;99.90
9385;DHT22;4732;49.340;10.886;2023-07-24T18:25:37;22.10;99.90
9385;DHT22;4732;49.340;10.886;2023-07-24T18:28:03;22.00;99.90
9385;DHT22;4732;49.340;10.886;2023-07-24T18:30:28;22.00;99.90
9385;DHT22;4732;49.340;10.886;2023-07-24T18:32:55;21.90;99.90
9385;DHT22;4732;49.340;10.886;2023-07-24T18:35:21;21.80;99.90
9385;DHT22;4732;49.340;10.886;2023-07-24T18:37:47;21.80;99.90
9385;DHT22;4732;49.340;10.886;2023-07-24T18:40:12;21.70;99.90
9385;DHT22;4732;49.340;10.886;2023-07-24T18:42:38;21.60;99.90
9385;DHT22;4732;49.340;10.886;2023-07-24T18:45:04;21.60;99.90